sensor_id;sensor_type;location;lat;lon;timestamp;P1;durP1;ratioP1;P2;durP2;ratioP2
41263;SDS011;26998;48.714;9.414;2022-12-18T00:01:25;116.03;;;50.00;;
41263;SDS011;26998;48.714;9.414;2022-12-18T00:03:54;115.97;;;49.27;;
41263;SDS011;26998;48.714;9.414;2022-12-18T00:06:23;112.97;;;50.37;;
41263;SDS011;26998;48.714;9.414;2022-12-18T00:08:51;116.83;;;47.10;;
41263;SDS011;26998;48.714;9.414;2022-12-18T00:11:19;108.97;;;47.57;;
41263;SDS011;26998;48.714;9.414;2022-12-18T00:13:47;106.53;;;47.97;;
41263;SDS011;26998;48.714;9.414;2022-12-18T00:16:15;111.23;;;44.73;;
41263;SDS011;26998;48.714;9.414;2022-12-18T00:18:44;113.25;;;47.60;;
41263;SDS011;26998;48.714;9.414;2022-12-18T00:21:11;98.20;;;44.43;;
41263;SDS011;26998;48.714;9.414;2022-12-18T00:23:39;109.30;;;45.80;;
41263;SDS011;26998;48.714;9.414;2022-12-18T00:26:09;110.27;;;48.77;;
41263;SDS011;26998;48.714;9.414;2022-12-18T00:28:40;114.13;;;49.13;;
41263;SDS011;26998;48.714;9.414;2022-12-18T00:31:09;118.27;;;46.73;;
41263;SDS011;26998;48.714;9.414;2022-12-18T00:33:38;116.28;;;46.97;;
41263;SDS011;26998;48.714;9.414;2022-12-18T00:36:06;112.70;;;47.27;;
41263;SDS011;26998;48.714;9.414;2022-12-18T00:38:35;119.57;;;47.80;;
41263;SDS011;26998;48.714;9.414;2022-12-18T00:41:03;121.50;;;48.10;;
41263;SDS011;26998;48.714;9.414;2022-12-18T00:43:30;112.90;;;48.33;;
41263;SDS011;26998;48.714;9.414;2022-12-18T00:45:56;108.00;;;45.40;;
41263;SDS011;26998;48.714;9.414;2022-12-18T00:48:23;105.87;;;45.40;;
41263;SDS011;26998;48.714;9.414;2022-12-18T00:50:50;117.67;;;49.33;;
41263;SDS011;26998;48.714;9.414;2022-12-18T00:53:17;111.93;;;45.63;;
41263;SDS011;26998;48.714;9.414;2022-12-18T00:55:44;112.80;;;45.10;;
41263;SDS011;26998;48.714;9.414;2022-12-18T00:58:14;114.50;;;48.67;;
41263;SDS011;26998;48.714;9.414;2022-12-18T01:00:41;99.63;;;43.60;;
41263;SDS011;26998;48.714;9.414;2022-12-18T01:03:09;112.83;;;43.20;;
41263;SDS011;26998;48.714;9.414;2022-12-18T01:05:39;114.07;;;44.53;;
41263;SDS011;26998;48.714;9.414;2022-12-18T01:08:07;111.83;;;43.07;;
41263;SDS011;26998;48.714;9.414;2022-12-18T01:10:33;104.10;;;41.57;;
41263;SDS011;26998;48.714;9.414;2022-12-18T01:13:00;115.37;;;43.27;;
41263;SDS011;26998;48.714;9.414;2022-12-18T01:15:26;102.23;;;42.90;;
41263;SDS011;26998;48.714;9.414;2022-12-18T01:17:53;107.47;;;44.97;;
41263;SDS011;26998;48.714;9.414;2022-12-18T01:20:20;104.30;;;42.57;;
41263;SDS011;26998;48.714;9.414;2022-12-18T01:22:46;103.13;;;40.57;;
41263;SDS011;26998;48.714;9.414;2022-12-18T01:25:13;111.43;;;41.63;;
41263;SDS011;26998;48.714;9.414;2022-12-18T01:27:39;102.90;;;40.20;;
41263;SDS011;26998;48.714;9.414;2022-12-18T01:30:06;99.87;;;39.87;;
41263;SDS011;26998;48.714;9.414;2022-12-18T01:32:33;101.83;;;41.47;;
41263;SDS011;26998;48.714;9.414;2022-12-18T01:34:59;106.37;;;40.50;;
41263;SDS011;26998;48.714;9.414;2022-12-18T01:37:26;100.20;;;42.30;;
41263;SDS011;26998;48.714;9.414;2022-12-18T01:39:53;107.27;;;41.13;;
41263;SDS011;26998;48.714;9.414;2022-12-18T01:42:19;99.07;;;38.60;;
41263;SDS011;26998;48.714;9.414;2022-12-18T01:47:29;108.27;;;41.73;;
41263;SDS011;26998;48.714;9.414;2022-12-18T01:50:09;111.87;;;39.80;;
41263;SDS011;26998;48.714;9.414;2022-12-18T01:52:57;102.17;;;39.60;;
41263;SDS011;26998;48.714;9.414;2022-12-18T01:55:26;106.13;;;39.63;;
41263;SDS011;26998;48.714;9.414;2022-12-18T02:00:24;101.97;;;41.00;;
41263;SDS011;26998;48.714;9.414;2022-12-18T02:02:52;98.43;;;38.93;;
41263;SDS011;26998;48.714;9.414;2022-12-18T02:05:23;104.73;;;40.87;;
41263;SDS011;26998;48.714;9.414;2022-12-18T02:10:38;103.00;;;40.17;;
41263;SDS011;26998;48.714;9.414;2022-12-18T02:13:21;99.13;;;43.63;;
41263;SDS011;26998;48.714;9.414;2022-12-18T02:16:44;101.50;;;40.63;;
41263;SDS011;26998;48.714;9.414;2022-12-18T02:19:39;93.53;;;36.20;;
41263;SDS011;26998;48.714;9.414;2022-12-18T02:22:20;99.40;;;38.70;;
41263;SDS011;26998;48.714;9.414;2022-12-18T02:28:00;103.50;;;40.40;;
41263;SDS011;26998;48.714;9.414;2022-12-18T02:30:30;93.32;;;37.42;;
41263;SDS011;26998;48.714;9.414;2022-12-18T02:32:59;101.37;;;39.77;;
41263;SDS011;26998;48.714;9.414;2022-12-18T02:35:30;98.60;;;37.77;;
41263;SDS011;26998;48.714;9.414;2022-12-18T02:37:58;90.30;;;36.20;;
41263;SDS011;26998;48.714;9.414;2022-12-18T02:40:26;94.37;;;39.73;;
41263;SDS011;26998;48.714;9.414;2022-12-18T02:42:54;99.67;;;41.10;;
41263;SDS011;26998;48.714;9.414;2022-12-18T02:45:21;102.33;;;37.30;;
41263;SDS011;26998;48.714;9.414;2022-12-18T02:47:48;87.83;;;36.13;;
41263;SDS011;26998;48.714;9.414;2022-12-18T02:50:24;97.70;;;37.93;;
41263;SDS011;26998;48.714;9.414;2022-12-18T02:55:56;92.80;;;36.10;;
41263;SDS011;26998;48.714;9.414;2022-12-18T03:01:11;88.73;;;36.07;;
41263;SDS011;26998;48.714;9.414;2022-12-18T03:03:50;85.50;;;34.70;;
41263;SDS011;26998;48.714;9.414;2022-12-18T03:06:23;85.83;;;34.70;;
41263;SDS011;26998;48.714;9.414;2022-12-18T03:09:02;89.47;;;35.57;;
41263;SDS011;26998;48.714;9.414;2022-12-18T03:11:34;86.67;;;35.70;;
41263;SDS011;26998;48.714;9.414;2022-12-18T03:14:06;84.03;;;34.50;;
41263;SDS011;26998;48.714;9.414;2022-12-18T03:16:33;79.77;;;33.87;;
41263;SDS011;26998;48.714;9.414;2022-12-18T03:19:10;81.63;;;34.00;;
41263;SDS011;26998;48.714;9.414;2022-12-18T03:21:45;96.17;;;37.07;;
41263;SDS011;26998;48.714;9.414;2022-12-18T03:24:15;84.33;;;36.87;;
41263;SDS011;26998;48.714;9.414;2022-12-18T03:26:45;100.23;;;38.10;;
41263;SDS011;26998;48.714;9.414;2022-12-18T03:29:14;96.20;;;36.97;;
41263;SDS011;26998;48.714;9.414;2022-12-18T03:31:49;90.50;;;36.03;;
41263;SDS011;26998;48.714;9.414;2022-12-18T03:34:20;98.93;;;37.23;;
41263;SDS011;26998;48.714;9.414;2022-12-18T03:36:50;85.60;;;36.87;;
41263;SDS011;26998;48.714;9.414;2022-12-18T03:39:16;89.13;;;36.97;;
41263;SDS011;26998;48.714;9.414;2022-12-18T03:41:44;93.70;;;35.97;;
41263;SDS011;26998;48.714;9.414;2022-12-18T03:44:29;90.87;;;36.53;;
41263;SDS011;26998;48.714;9.414;2022-12-18T03:52:41;93.17;;;36.80;;
41263;SDS011;26998;48.714;9.414;2022-12-18T03:55:14;88.97;;;36.33;;
41263;SDS011;26998;48.714;9.414;2022-12-18T03:57:43;92.27;;;37.57;;
41263;SDS011;26998;48.714;9.414;2022-12-18T04:00:12;92.47;;;36.53;;
41263;SDS011;26998;48.714;9.414;2022-12-18T04:02:42;106.87;;;36.93;;
41263;SDS011;26998;48.714;9.414;2022-12-18T04:05:12;87.43;;;37.83;;
41263;SDS011;26998;48.714;9.414;2022-12-18T04:07:39;103.33;;;37.67;;
41263;SDS011;26998;48.714;9.414;2022-12-18T04:10:07;108.60;;;40.30;;
41263;SDS011;26998;48.714;9.414;2022-12-18T04:12:36;104.30;;;38.10;;
41263;SDS011;26998;48.714;9.414;2022-12-18T04:15:04;97.90;;;38.57;;
41263;SDS011;26998;48.714;9.414;2022-12-18T04:17:31;100.50;;;37.27;;
41263;SDS011;26998;48.714;9.414;2022-12-18T04:19:58;96.70;;;38.27;;
41263;SDS011;26998;48.714;9.414;2022-12-18T04:22:25;92.27;;;36.43;;
41263;SDS011;26998;48.714;9.414;2022-12-18T04:24:51;94.33;;;38.17;;
41263;SDS011;26998;48.714;9.414;2022-12-18T04:27:17;93.77;;;36.97;;
41263;SDS011;26998;48.714;9.414;2022-12-18T04:29:44;100.50;;;37.23;;
41263;SDS011;26998;48.714;9.414;2022-12-18T04:32:10;85.27;;;34.63;;
41263;SDS011;26998;48.714;9.414;2022-12-18T04:34:37;101.40;;;40.13;;
41263;SDS011;26998;48.714;9.414;2022-12-18T04:37:03;89.53;;;35.97;;
41263;SDS011;26998;48.714;9.414;2022-12-18T04:39:30;87.37;;;34.90;;
41263;SDS011;26998;48.714;9.414;2022-12-18T04:41:56;97.83;;;36.77;;
41263;SDS011;26998;48.714;9.414;2022-12-18T04:44:23;89.07;;;34.93;;
41263;SDS011;26998;48.714;9.414;2022-12-18T04:46:50;91.73;;;33.87;;
41263;SDS011;26998;48.714;9.414;2022-12-18T04:49:16;83.10;;;34.17;;
41263;SDS011;26998;48.714;9.414;2022-12-18T04:51:42;83.03;;;31.87;;
41263;SDS011;26998;48.714;9.414;2022-12-18T04:54:09;75.07;;;31.53;;
41263;SDS011;26998;48.714;9.414;2022-12-18T04:56:35;85.17;;;32.37;;
41263;SDS011;26998;48.714;9.414;2022-12-18T04:59:01;77.40;;;31.57;;
41263;SDS011;26998;48.714;9.414;2022-12-18T05:01:28;74.57;;;31.67;;
41263;SDS011;26998;48.714;9.414;2022-12-18T05:04:00;83.17;;;32.83;;
41263;SDS011;26998;48.714;9.414;2022-12-18T05:06:27;75.00;;;31.40;;
41263;SDS011;26998;48.714;9.414;2022-12-18T05:08:54;69.60;;;32.23;;
41263;SDS011;26998;48.714;9.414;2022-12-18T05:11:21;90.10;;;34.67;;
41263;SDS011;26998;48.714;9.414;2022-12-18T05:13:47;78.97;;;33.53;;
41263;SDS011;26998;48.714;9.414;2022-12-18T05:16:14;88.50;;;34.37;;
41263;SDS011;26998;48.714;9.414;2022-12-18T05:18:41;91.17;;;34.67;;
41263;SDS011;26998;48.714;9.414;2022-12-18T05:21:08;88.83;;;35.87;;
41263;SDS011;26998;48.714;9.414;2022-12-18T05:23:35;86.00;;;33.97;;
41263;SDS011;26998;48.714;9.414;2022-12-18T05:26:04;76.37;;;32.43;;
41263;SDS011;26998;48.714;9.414;2022-12-18T05:28:32;88.37;;;36.93;;
41263;SDS011;26998;48.714;9.414;2022-12-18T05:31:01;87.80;;;36.40;;
41263;SDS011;26998;48.714;9.414;2022-12-18T05:33:29;90.20;;;33.87;;
41263;SDS011;26998;48.714;9.414;2022-12-18T05:35:59;84.20;;;35.60;;
41263;SDS011;26998;48.714;9.414;2022-12-18T05:38:27;90.77;;;36.67;;
41263;SDS011;26998;48.714;9.414;2022-12-18T05:40:55;89.60;;;36.67;;
41263;SDS011;26998;48.714;9.414;2022-12-18T05:43:23;93.07;;;37.07;;
41263;SDS011;26998;48.714;9.414;2022-12-18T05:45:50;91.07;;;33.90;;
41263;SDS011;26998;48.714;9.414;2022-12-18T05:48:17;89.80;;;36.70;;
41263;SDS011;26998;48.714;9.414;2022-12-18T05:50:44;97.73;;;36.33;;
41263;SDS011;26998;48.714;9.414;2022-12-18T05:53:12;97.30;;;39.20;;
41263;SDS011;26998;48.714;9.414;2022-12-18T05:55:41;89.77;;;38.63;;
41263;SDS011;26998;48.714;9.414;2022-12-18T05:58:08;101.90;;;40.83;;
41263;SDS011;26998;48.714;9.414;2022-12-18T06:00:37;94.40;;;36.97;;
41263;SDS011;26998;48.714;9.414;2022-12-18T06:03:06;96.53;;;37.97;;
41263;SDS011;26998;48.714;9.414;2022-12-18T06:05:37;88.03;;;33.93;;
41263;SDS011;26998;48.714;9.414;2022-12-18T06:08:05;98.40;;;36.23;;
41263;SDS011;26998;48.714;9.414;2022-12-18T06:10:32;97.83;;;36.97;;
41263;SDS011;26998;48.714;9.414;2022-12-18T06:12:59;88.20;;;35.20;;
41263;SDS011;26998;48.714;9.414;2022-12-18T06:15:25;92.37;;;36.23;;
41263;SDS011;26998;48.714;9.414;2022-12-18T06:17:52;100.73;;;37.90;;
41263;SDS011;26998;48.714;9.414;2022-12-18T06:20:18;94.47;;;35.73;;
41263;SDS011;26998;48.714;9.414;2022-12-18T06:22:45;102.77;;;37.77;;
41263;SDS011;26998;48.714;9.414;2022-12-18T06:25:12;93.67;;;35.40;;
41263;SDS011;26998;48.714;9.414;2022-12-18T06:27:38;91.07;;;36.47;;
41263;SDS011;26998;48.714;9.414;2022-12-18T06:30:07;92.67;;;37.20;;
41263;SDS011;26998;48.714;9.414;2022-12-18T06:32:34;104.73;;;38.97;;
41263;SDS011;26998;48.714;9.414;2022-12-18T06:35:01;89.73;;;34.63;;
41263;SDS011;26998;48.714;9.414;2022-12-18T06:37:27;88.00;;;34.60;;
41263;SDS011;26998;48.714;9.414;2022-12-18T06:39:53;94.17;;;35.97;;
41263;SDS011;26998;48.714;9.414;2022-12-18T06:42:22;90.63;;;35.63;;
41263;SDS011;26998;48.714;9.414;2022-12-18T06:44:48;92.73;;;35.37;;
41263;SDS011;26998;48.714;9.414;2022-12-18T06:47:15;88.07;;;33.47;;
41263;SDS011;26998;48.714;9.414;2022-12-18T06:49:41;95.37;;;36.93;;
41263;SDS011;26998;48.714;9.414;2022-12-18T06:52:09;94.60;;;36.60;;
41263;SDS011;26998;48.714;9.414;2022-12-18T06:54:35;94.40;;;36.77;;
41263;SDS011;26998;48.714;9.414;2022-12-18T06:57:02;83.70;;;34.73;;
41263;SDS011;26998;48.714;9.414;2022-12-18T06:59:28;89.93;;;36.27;;
41263;SDS011;26998;48.714;9.414;2022-12-18T07:01:55;84.07;;;33.00;;
41263;SDS011;26998;48.714;9.414;2022-12-18T07:04:21;90.27;;;34.97;;
41263;SDS011;26998;48.714;9.414;2022-12-18T07:06:47;89.27;;;33.90;;
41263;SDS011;26998;48.714;9.414;2022-12-18T07:09:14;85.53;;;36.07;;
41263;SDS011;26998;48.714;9.414;2022-12-18T07:11:40;80.20;;;36.67;;
41263;SDS011;26998;48.714;9.414;2022-12-18T07:14:07;86.37;;;33.57;;
41263;SDS011;26998;48.714;9.414;2022-12-18T07:16:33;76.90;;;31.80;;
41263;SDS011;26998;48.714;9.414;2022-12-18T07:19:00;84.13;;;35.43;;
41263;SDS011;26998;48.714;9.414;2022-12-18T07:21:26;92.63;;;33.80;;
41263;SDS011;26998;48.714;9.414;2022-12-18T07:23:53;86.90;;;32.83;;
41263;SDS011;26998;48.714;9.414;2022-12-18T07:26:20;82.70;;;34.13;;
41263;SDS011;26998;48.714;9.414;2022-12-18T07:28:47;89.90;;;35.83;;
41263;SDS011;26998;48.714;9.414;2022-12-18T07:31:16;80.70;;;32.37;;
41263;SDS011;26998;48.714;9.414;2022-12-18T07:33:46;95.17;;;35.57;;
41263;SDS011;26998;48.714;9.414;2022-12-18T07:36:13;83.93;;;34.07;;
41263;SDS011;26998;48.714;9.414;2022-12-18T07:38:41;87.53;;;35.17;;
41263;SDS011;26998;48.714;9.414;2022-12-18T07:41:08;83.13;;;31.73;;
41263;SDS011;26998;48.714;9.414;2022-12-18T07:43:37;93.72;;;34.00;;
41263;SDS011;26998;48.714;9.414;2022-12-18T07:46:07;80.50;;;33.97;;
41263;SDS011;26998;48.714;9.414;2022-12-18T07:48:34;81.60;;;34.70;;
41263;SDS011;26998;48.714;9.414;2022-12-18T07:51:02;90.33;;;35.37;;
41263;SDS011;26998;48.714;9.414;2022-12-18T07:53:29;83.63;;;31.90;;
41263;SDS011;26998;48.714;9.414;2022-12-18T07:56:00;83.50;;;32.83;;
41263;SDS011;26998;48.714;9.414;2022-12-18T07:58:48;76.33;;;30.63;;
41263;SDS011;26998;48.714;9.414;2022-12-18T08:01:15;75.63;;;32.60;;
41263;SDS011;26998;48.714;9.414;2022-12-18T08:03:42;82.40;;;35.20;;
41263;SDS011;26998;48.714;9.414;2022-12-18T08:06:10;73.57;;;31.30;;
41263;SDS011;26998;48.714;9.414;2022-12-18T08:08:36;69.90;;;30.97;;
41263;SDS011;26998;48.714;9.414;2022-12-18T08:11:03;67.00;;;30.67;;
41263;SDS011;26998;48.714;9.414;2022-12-18T08:13:29;69.23;;;29.73;;
41263;SDS011;26998;48.714;9.414;2022-12-18T08:15:57;63.73;;;29.60;;
41263;SDS011;26998;48.714;9.414;2022-12-18T08:18:24;70.30;;;31.93;;
41263;SDS011;26998;48.714;9.414;2022-12-18T08:20:51;67.73;;;28.10;;
41263;SDS011;26998;48.714;9.414;2022-12-18T08:23:18;65.60;;;29.90;;
41263;SDS011;26998;48.714;9.414;2022-12-18T08:25:44;62.07;;;29.77;;
41263;SDS011;26998;48.714;9.414;2022-12-18T08:28:11;74.93;;;31.53;;
41263;SDS011;26998;48.714;9.414;2022-12-18T08:30:37;78.90;;;30.40;;
41263;SDS011;26998;48.714;9.414;2022-12-18T08:33:04;68.90;;;31.83;;
41263;SDS011;26998;48.714;9.414;2022-12-18T08:35:34;64.00;;;32.63;;
41263;SDS011;26998;48.714;9.414;2022-12-18T08:38:09;71.23;;;29.80;;
41263;SDS011;26998;48.714;9.414;2022-12-18T08:40:35;69.40;;;32.40;;
41263;SDS011;26998;48.714;9.414;2022-12-18T08:43:02;75.87;;;34.73;;
41263;SDS011;26998;48.714;9.414;2022-12-18T08:45:28;59.83;;;28.77;;
41263;SDS011;26998;48.714;9.414;2022-12-18T08:47:55;68.77;;;30.67;;
41263;SDS011;26998;48.714;9.414;2022-12-18T08:50:21;69.63;;;29.43;;
41263;SDS011;26998;48.714;9.414;2022-12-18T08:52:48;62.23;;;28.57;;
41263;SDS011;26998;48.714;9.414;2022-12-18T08:55:15;63.13;;;28.73;;
41263;SDS011;26998;48.714;9.414;2022-12-18T08:57:41;62.10;;;29.27;;
41263;SDS011;26998;48.714;9.414;2022-12-18T09:00:08;68.50;;;30.50;;
41263;SDS011;26998;48.714;9.414;2022-12-18T09:02:34;64.10;;;31.67;;
41263;SDS011;26998;48.714;9.414;2022-12-18T09:05:01;75.33;;;32.60;;
41263;SDS011;26998;48.714;9.414;2022-12-18T09:07:28;69.47;;;31.53;;
41263;SDS011;26998;48.714;9.414;2022-12-18T09:09:57;64.23;;;32.03;;
41263;SDS011;26998;48.714;9.414;2022-12-18T09:12:23;65.03;;;31.77;;
41263;SDS011;26998;48.714;9.414;2022-12-18T09:14:50;72.33;;;31.90;;
41263;SDS011;26998;48.714;9.414;2022-12-18T09:17:16;73.30;;;34.40;;
41263;SDS011;26998;48.714;9.414;2022-12-18T09:19:43;67.97;;;30.17;;
41263;SDS011;26998;48.714;9.414;2022-12-18T09:22:10;72.67;;;32.70;;
41263;SDS011;26998;48.714;9.414;2022-12-18T09:24:36;60.97;;;31.90;;
41263;SDS011;26998;48.714;9.414;2022-12-18T09:27:04;64.40;;;29.90;;
41263;SDS011;26998;48.714;9.414;2022-12-18T09:29:30;67.37;;;30.33;;
41263;SDS011;26998;48.714;9.414;2022-12-18T09:31:58;66.30;;;32.60;;
41263;SDS011;26998;48.714;9.414;2022-12-18T09:34:24;69.47;;;30.93;;
41263;SDS011;26998;48.714;9.414;2022-12-18T09:36:51;72.70;;;34.63;;
41263;SDS011;26998;48.714;9.414;2022-12-18T09:39:17;65.87;;;31.63;;
41263;SDS011;26998;48.714;9.414;2022-12-18T09:41:53;63.10;;;30.97;;
41263;SDS011;26998;48.714;9.414;2022-12-18T09:46:59;66.80;;;32.50;;
41263;SDS011;26998;48.714;9.414;2022-12-18T09:49:30;68.10;;;33.37;;
41263;SDS011;26998;48.714;9.414;2022-12-18T09:52:14;70.38;;;33.10;;
41263;SDS011;26998;48.714;9.414;2022-12-18T09:55:47;72.10;;;35.07;;
41263;SDS011;26998;48.714;9.414;2022-12-18T10:01:18;70.47;;;32.47;;
41263;SDS011;26998;48.714;9.414;2022-12-18T10:03:48;68.00;;;33.33;;
41263;SDS011;26998;48.714;9.414;2022-12-18T10:06:20;68.33;;;34.40;;
41263;SDS011;26998;48.714;9.414;2022-12-18T10:15:15;65.77;;;33.77;;
41263;SDS011;26998;48.714;9.414;2022-12-18T10:20:51;74.73;;;33.30;;
41263;SDS011;26998;48.714;9.414;2022-12-18T10:23:28;66.23;;;34.57;;
41263;SDS011;26998;48.714;9.414;2022-12-18T10:26:13;62.67;;;33.47;;
41263;SDS011;26998;48.714;9.414;2022-12-18T10:28:40;76.13;;;35.87;;
41263;SDS011;26998;48.714;9.414;2022-12-18T10:31:18;72.20;;;34.47;;
41263;SDS011;26998;48.714;9.414;2022-12-18T10:33:49;74.17;;;35.53;;
41263;SDS011;26998;48.714;9.414;2022-12-18T10:36:16;63.13;;;33.83;;
41263;SDS011;26998;48.714;9.414;2022-12-18T10:38:42;73.60;;;32.47;;
41263;SDS011;26998;48.714;9.414;2022-12-18T10:43:47;65.57;;;34.60;;
41263;SDS011;26998;48.714;9.414;2022-12-18T10:46:19;63.70;;;32.77;;
41263;SDS011;26998;48.714;9.414;2022-12-18T10:48:48;78.10;;;37.10;;
41263;SDS011;26998;48.714;9.414;2022-12-18T10:51:20;74.33;;;36.00;;
41263;SDS011;26998;48.714;9.414;2022-12-18T10:53:59;70.23;;;37.43;;
41263;SDS011;26998;48.714;9.414;2022-12-18T10:56:33;76.80;;;40.17;;
41263;SDS011;26998;48.714;9.414;2022-12-18T10:59:05;75.32;;;37.38;;
41263;SDS011;26998;48.714;9.414;2022-12-18T11:01:47;71.20;;;36.03;;
41263;SDS011;26998;48.714;9.414;2022-12-18T11:04:19;71.72;;;37.35;;
41263;SDS011;26998;48.714;9.414;2022-12-18T11:09:34;72.97;;;36.23;;
41263;SDS011;26998;48.714;9.414;2022-12-18T11:12:03;68.70;;;35.33;;
41263;SDS011;26998;48.714;9.414;2022-12-18T11:14:32;62.28;;;28.48;;
41263;SDS011;26998;48.714;9.414;2022-12-18T11:17:28;69.13;;;34.38;;
41263;SDS011;26998;48.714;9.414;2022-12-18T11:20:07;77.50;;;37.93;;
41263;SDS011;26998;48.714;9.414;2022-12-18T11:23:00;78.53;;;40.88;;
41263;SDS011;26998;48.714;9.414;2022-12-18T11:25:29;73.83;;;38.00;;
41263;SDS011;26998;48.714;9.414;2022-12-18T11:27:59;73.23;;;37.37;;
41263;SDS011;26998;48.714;9.414;2022-12-18T11:30:48;76.25;;;37.58;;
41263;SDS011;26998;48.714;9.414;2022-12-18T11:33:21;72.57;;;36.70;;
41263;SDS011;26998;48.714;9.414;2022-12-18T11:35:58;76.57;;;37.80;;
41263;SDS011;26998;48.714;9.414;2022-12-18T11:38:35;70.82;;;38.17;;
41263;SDS011;26998;48.714;9.414;2022-12-18T11:41:07;74.70;;;36.47;;
41263;SDS011;26998;48.714;9.414;2022-12-18T11:43:54;78.83;;;40.67;;
41263;SDS011;26998;48.714;9.414;2022-12-18T11:46:32;70.80;;;36.37;;
41263;SDS011;26998;48.714;9.414;2022-12-18T11:49:12;72.63;;;37.67;;
41263;SDS011;26998;48.714;9.414;2022-12-18T11:54:44;73.03;;;37.07;;
41263;SDS011;26998;48.714;9.414;2022-12-18T12:11:34;77.93;;;39.20;;
41263;SDS011;26998;48.714;9.414;2022-12-18T12:14:29;75.97;;;39.73;;
41263;SDS011;26998;48.714;9.414;2022-12-18T12:19:53;77.70;;;40.23;;
41263;SDS011;26998;48.714;9.414;2022-12-18T12:28:15;72.23;;;38.70;;
41263;SDS011;26998;48.714;9.414;2022-12-18T12:31:01;74.23;;;36.50;;
41263;SDS011;26998;48.714;9.414;2022-12-18T12:33:50;74.40;;;37.63;;
41263;SDS011;26998;48.714;9.414;2022-12-18T12:36:43;67.93;;;35.07;;
41263;SDS011;26998;48.714;9.414;2022-12-18T12:39:33;70.13;;;34.87;;
41263;SDS011;26998;48.714;9.414;2022-12-18T12:42:05;69.43;;;36.63;;
41263;SDS011;26998;48.714;9.414;2022-12-18T12:44:55;70.10;;;35.65;;
41263;SDS011;26998;48.714;9.414;2022-12-18T12:47:25;76.23;;;38.57;;
41263;SDS011;26998;48.714;9.414;2022-12-18T12:49:58;71.73;;;37.53;;
41263;SDS011;26998;48.714;9.414;2022-12-18T12:52:37;70.10;;;36.03;;
41263;SDS011;26998;48.714;9.414;2022-12-18T12:55:13;62.90;;;32.47;;
41263;SDS011;26998;48.714;9.414;2022-12-18T12:57:57;88.63;;;45.77;;
41263;SDS011;26998;48.714;9.414;2022-12-18T13:00:36;61.37;;;28.73;;
41263;SDS011;26998;48.714;9.414;2022-12-18T13:06:19;59.33;;;27.63;;
41263;SDS011;26998;48.714;9.414;2022-12-18T13:08:57;64.83;;;30.93;;
41263;SDS011;26998;48.714;9.414;2022-12-18T13:11:32;47.93;;;25.07;;
41263;SDS011;26998;48.714;9.414;2022-12-18T13:14:03;47.17;;;23.03;;
41263;SDS011;26998;48.714;9.414;2022-12-18T13:16:29;68.20;;;30.47;;
41263;SDS011;26998;48.714;9.414;2022-12-18T13:18:57;65.53;;;31.77;;
41263;SDS011;26998;48.714;9.414;2022-12-18T13:23:55;57.50;;;28.07;;
41263;SDS011;26998;48.714;9.414;2022-12-18T13:28:55;48.63;;;25.23;;
41263;SDS011;26998;48.714;9.414;2022-12-18T13:31:57;48.83;;;22.90;;
41263;SDS011;26998;48.714;9.414;2022-12-18T13:34:28;50.03;;;22.97;;
41263;SDS011;26998;48.714;9.414;2022-12-18T13:37:39;49.40;;;23.00;;
41263;SDS011;26998;48.714;9.414;2022-12-18T13:40:01;52.37;;;24.77;;
41263;SDS011;26998;48.714;9.414;2022-12-18T13:45:31;50.80;;;24.87;;
41263;SDS011;26998;48.714;9.414;2022-12-18T13:48:22;49.87;;;25.47;;
41263;SDS011;26998;48.714;9.414;2022-12-18T13:51:24;53.47;;;26.07;;
41263;SDS011;26998;48.714;9.414;2022-12-18T13:53:48;53.77;;;24.50;;
41263;SDS011;26998;48.714;9.414;2022-12-18T13:56:20;48.23;;;24.30;;
41263;SDS011;26998;48.714;9.414;2022-12-18T13:59:03;50.30;;;23.57;;
41263;SDS011;26998;48.714;9.414;2022-12-18T14:01:32;46.67;;;22.03;;
41263;SDS011;26998;48.714;9.414;2022-12-18T14:04:09;44.60;;;21.40;;
41263;SDS011;26998;48.714;9.414;2022-12-18T14:06:51;47.43;;;24.23;;
41263;SDS011;26998;48.714;9.414;2022-12-18T14:09:25;51.47;;;22.77;;
41263;SDS011;26998;48.714;9.414;2022-12-18T14:11:57;49.07;;;22.40;;
41263;SDS011;26998;48.714;9.414;2022-12-18T14:14:24;53.10;;;24.03;;
41263;SDS011;26998;48.714;9.414;2022-12-18T14:16:58;47.37;;;22.07;;
41263;SDS011;26998;48.714;9.414;2022-12-18T14:19:26;56.00;;;24.77;;
41263;SDS011;26998;48.714;9.414;2022-12-18T14:21:53;56.20;;;24.47;;
41263;SDS011;26998;48.714;9.414;2022-12-18T14:24:21;58.90;;;26.40;;
41263;SDS011;26998;48.714;9.414;2022-12-18T14:26:48;56.13;;;24.03;;
41263;SDS011;26998;48.714;9.414;2022-12-18T14:32:06;53.27;;;24.33;;
41263;SDS011;26998;48.714;9.414;2022-12-18T14:34:52;56.63;;;26.43;;
41263;SDS011;26998;48.714;9.414;2022-12-18T14:37:21;60.00;;;30.47;;
41263;SDS011;26998;48.714;9.414;2022-12-18T14:39:57;71.97;;;33.60;;
41263;SDS011;26998;48.714;9.414;2022-12-18T14:42:29;56.75;;;27.15;;
41263;SDS011;26998;48.714;9.414;2022-12-18T14:48:08;72.90;;;35.03;;
41263;SDS011;26998;48.714;9.414;2022-12-18T14:51:02;82.10;;;38.80;;
41263;SDS011;26998;48.714;9.414;2022-12-18T14:53:42;88.47;;;40.50;;
41263;SDS011;26998;48.714;9.414;2022-12-18T14:56:23;82.17;;;42.33;;
41263;SDS011;26998;48.714;9.414;2022-12-18T15:01:27;81.43;;;41.70;;
41263;SDS011;26998;48.714;9.414;2022-12-18T15:03:57;81.63;;;41.73;;
41263;SDS011;26998;48.714;9.414;2022-12-18T15:08:58;83.10;;;40.73;;
41263;SDS011;26998;48.714;9.414;2022-12-18T15:13:59;58.63;;;27.23;;
41263;SDS011;26998;48.714;9.414;2022-12-18T15:16:25;50.83;;;23.33;;
41263;SDS011;26998;48.714;9.414;2022-12-18T15:18:53;52.90;;;26.33;;
41263;SDS011;26998;48.714;9.414;2022-12-18T15:21:19;56.93;;;25.10;;
41263;SDS011;26998;48.714;9.414;2022-12-18T15:23:48;49.67;;;23.33;;
41263;SDS011;26998;48.714;9.414;2022-12-18T15:26:19;61.50;;;24.80;;
41263;SDS011;26998;48.714;9.414;2022-12-18T15:31:24;51.50;;;24.30;;
41263;SDS011;26998;48.714;9.414;2022-12-18T15:36:29;54.50;;;23.50;;
41263;SDS011;26998;48.714;9.414;2022-12-18T15:38:57;50.07;;;24.57;;
41263;SDS011;26998;48.714;9.414;2022-12-18T15:41:31;49.93;;;23.37;;
41263;SDS011;26998;48.714;9.414;2022-12-18T15:44:01;52.13;;;24.27;;
41263;SDS011;26998;48.714;9.414;2022-12-18T15:46:28;51.77;;;23.17;;
41263;SDS011;26998;48.714;9.414;2022-12-18T15:48:55;50.43;;;23.00;;
41263;SDS011;26998;48.714;9.414;2022-12-18T15:51:34;47.03;;;22.77;;
41263;SDS011;26998;48.714;9.414;2022-12-18T15:54:03;50.53;;;22.53;;
41263;SDS011;26998;48.714;9.414;2022-12-18T15:56:32;52.13;;;22.77;;
41263;SDS011;26998;48.714;9.414;2022-12-18T15:58:59;46.93;;;21.93;;
41263;SDS011;26998;48.714;9.414;2022-12-18T16:01:27;45.90;;;19.97;;
41263;SDS011;26998;48.714;9.414;2022-12-18T16:03:55;49.30;;;23.07;;
41263;SDS011;26998;48.714;9.414;2022-12-18T16:06:22;49.63;;;24.30;;
41263;SDS011;26998;48.714;9.414;2022-12-18T16:08:49;50.43;;;23.97;;
41263;SDS011;26998;48.714;9.414;2022-12-18T16:13:50;52.13;;;23.93;;
41263;SDS011;26998;48.714;9.414;2022-12-18T16:16:16;54.03;;;24.97;;
41263;SDS011;26998;48.714;9.414;2022-12-18T16:18:43;49.40;;;24.17;;
41263;SDS011;26998;48.714;9.414;2022-12-18T16:21:10;50.37;;;24.03;;